createdAt,value
2023-11-07T00:01:28.112Z,72.96
2023-11-07T00:03:54.792Z,73.19
2023-11-07T00:06:21.430Z,73.25
2023-11-07T00:08:48.158Z,73.11
2023-11-07T00:11:14.774Z,73.01
2023-11-07T00:13:43.299Z,73.17
2023-11-07T00:16:13.328Z,73.33
2023-11-07T00:18:40.878Z,73.44
2023-11-07T00:21:07.875Z,73.62
2023-11-07T00:23:34.700Z,73.72
2023-11-07T00:26:02.572Z,73.78
2023-11-07T00:28:29.081Z,73.85
2023-11-07T00:30:55.566Z,73.95
2023-11-07T00:33:22.442Z,74.08
2023-11-07T00:35:49.027Z,74.10
2023-11-07T00:38:15.785Z,74.15
2023-11-07T00:40:42.432Z,74.37
2023-11-07T00:43:09.089Z,74.29
2023-11-07T00:45:35.762Z,74.35
2023-11-07T00:48:02.678Z,74.37
2023-11-07T00:50:29.651Z,74.58
2023-11-07T00:52:56.116Z,74.73
2023-11-07T00:55:22.789Z,74.89
2023-11-07T00:57:49.636Z,75.12
2023-11-07T01:00:16.803Z,75.30
2023-11-07T01:02:45.390Z,75.41
2023-11-07T01:05:12.905Z,75.51
2023-11-07T01:07:40.371Z,75.64
2023-11-07T01:10:08.046Z,75.85
2023-11-07T01:12:35.144Z,76.11
2023-11-07T01:15:03.960Z,76.37
2023-11-07T01:17:32.381Z,76.41
2023-11-07T01:19:59.361Z,76.47
2023-11-07T01:22:26.871Z,76.76
2023-11-07T01:24:53.580Z,76.88
2023-11-07T01:27:20.079Z,76.93
2023-11-07T01:29:46.739Z,77.12
2023-11-07T01:32:13.526Z,77.08
2023-11-07T01:34:40.008Z,77.23
2023-11-07T01:37:07.473Z,77.33
2023-11-07T01:39:33.997Z,77.48
2023-11-07T01:42:00.556Z,77.60
2023-11-07T01:44:30.369Z,77.45
2023-11-07T01:46:57.474Z,77.49
2023-11-07T01:49:25.241Z,77.71
2023-11-07T01:51:51.862Z,77.69
2023-11-07T01:54:18.683Z,77.89
2023-11-07T01:56:45.640Z,78.06
2023-11-07T01:59:12.203Z,78.09
2023-11-07T02:01:39.115Z,78.16
2023-11-07T02:04:05.814Z,78.13
2023-11-07T02:06:33.170Z,78.26
2023-11-07T02:09:01.087Z,78.32
2023-11-07T02:11:29.312Z,78.37
2023-11-07T02:13:56.812Z,78.34
2023-11-07T02:16:23.817Z,78.54
2023-11-07T02:18:51.731Z,78.66
2023-11-07T02:21:18.324Z,78.56
2023-11-07T02:23:44.962Z,78.64
2023-11-07T02:26:11.729Z,78.76
2023-11-07T02:28:39.482Z,78.83
2023-11-07T02:31:06.586Z,79.21
2023-11-07T02:33:33.645Z,79.36
2023-11-07T02:36:00.831Z,79.54
2023-11-07T02:38:29.385Z,79.64
2023-11-07T02:40:56.223Z,79.76
2023-11-07T02:43:22.817Z,79.92
2023-11-07T02:45:49.418Z,80.12
2023-11-07T02:48:16.222Z,80.31
2023-11-07T02:50:43.109Z,80.49
2023-11-07T02:53:09.886Z,80.44
2023-11-07T02:55:36.520Z,80.59
2023-11-07T02:58:03.059Z,80.78
2023-11-07T03:00:29.736Z,80.91
2023-11-07T03:02:56.329Z,81.07
2023-11-07T03:05:23.186Z,81.32
2023-11-07T03:07:49.695Z,81.39
2023-11-07T03:10:16.489Z,81.59
2023-11-07T03:12:43.160Z,81.68
2023-11-07T03:15:10.089Z,81.77
2023-11-07T03:17:37.197Z,81.86
2023-11-07T03:20:06.992Z,81.89
2023-11-07T03:22:33.653Z,81.92
2023-11-07T03:25:00.261Z,81.98
2023-11-07T03:27:26.835Z,81.96
2023-11-07T03:29:53.872Z,82.05
2023-11-07T03:32:20.374Z,82.10
2023-11-07T03:34:46.869Z,82.12
2023-11-07T03:37:13.575Z,82.15
2023-11-07T03:39:40.246Z,82.21
2023-11-07T03:42:07.094Z,82.31
2023-11-07T03:44:35.530Z,82.40
2023-11-07T03:47:06.121Z,82.52
2023-11-07T03:49:33.489Z,82.67
2023-11-07T03:52:00.665Z,82.71
2023-11-07T03:54:27.636Z,82.64
2023-11-07T03:56:54.181Z,82.53
2023-11-07T03:59:20.921Z,82.62
2023-11-07T04:01:47.664Z,82.69
2023-11-07T04:04:14.435Z,82.77
2023-11-07T04:06:41.113Z,82.83
2023-11-07T04:09:08.337Z,82.87
2023-11-07T04:11:34.913Z,82.88
2023-11-07T04:14:01.400Z,82.85
2023-11-07T04:16:28.408Z,82.97
2023-11-07T04:18:55.601Z,82.97
2023-11-07T04:21:22.604Z,83.17
2023-11-07T04:23:49.518Z,83.22
2023-11-07T04:26:16.922Z,83.42
2023-11-07T04:28:43.476Z,83.42
2023-11-07T04:31:10.061Z,83.50
2023-11-07T04:33:39.001Z,83.56
2023-11-07T04:36:07.078Z,83.61
2023-11-07T04:38:34.734Z,83.64
2023-11-07T04:41:02.467Z,83.75
2023-11-07T04:44:23.530Z,83.85
2023-11-07T04:46:50.773Z,83.92
2023-11-07T04:49:18.140Z,84.12
2023-11-07T04:51:45.562Z,84.28
2023-11-07T04:54:12.920Z,84.27
2023-11-07T04:56:40.355Z,84.33
2023-11-07T04:59:07.784Z,84.44
2023-11-07T05:01:35.700Z,84.46
2023-11-07T05:04:03.600Z,84.48
2023-11-07T05:06:32.051Z,84.64
2023-11-07T05:09:00.104Z,84.73
2023-11-07T05:11:28.835Z,84.73
2023-11-07T05:13:56.106Z,84.76
2023-11-07T05:16:23.316Z,84.97
2023-11-07T05:18:50.693Z,85.07
2023-11-07T05:21:18.249Z,85.15
2023-11-07T05:23:45.738Z,85.26
2023-11-07T05:26:13.158Z,85.26
2023-11-07T05:28:40.539Z,85.31
2023-11-07T05:31:07.785Z,85.14
2023-11-07T05:33:36.017Z,84.66
2023-11-07T05:36:04.738Z,84.33
2023-11-07T05:38:32.197Z,84.01
2023-11-07T05:40:59.435Z,83.90
2023-11-07T05:43:26.954Z,83.68
2023-11-07T05:45:54.514Z,83.58
2023-11-07T05:48:25.580Z,83.41
2023-11-07T05:50:53.059Z,83.17
2023-11-07T05:53:20.393Z,82.86
2023-11-07T05:55:47.873Z,82.62
2023-11-07T05:58:15.552Z,82.27
2023-11-07T06:00:42.786Z,81.96
2023-11-07T06:03:10.151Z,81.60
2023-11-07T06:05:37.535Z,81.00
2023-11-07T06:08:05.389Z,80.41
2023-11-07T06:10:32.593Z,79.86
2023-11-07T06:12:59.880Z,79.30
2023-11-07T06:15:27.204Z,78.20
2023-11-07T06:17:54.510Z,76.87
2023-11-07T06:20:22.787Z,75.65
2023-11-07T06:22:51.925Z,74.57
2023-11-07T06:25:20.343Z,73.43
2023-11-07T06:27:52.354Z,71.97
2023-11-07T06:30:21.390Z,69.98
2023-11-07T06:32:51.147Z,68.73
2023-11-07T06:35:18.674Z,67.53
2023-11-07T06:37:47.543Z,66.50
2023-11-07T06:40:17.196Z,65.68
2023-11-07T06:42:47.420Z,64.86
2023-11-07T06:45:15.313Z,64.40
2023-11-07T06:47:47.188Z,64.03
2023-11-07T06:50:17.272Z,63.99
2023-11-07T06:52:54.311Z,63.52
2023-11-07T06:55:26.609Z,63.24
2023-11-07T06:57:56.371Z,63.47
2023-11-07T07:00:26.709Z,63.23
2023-11-07T07:02:58.590Z,62.96
2023-11-07T07:05:27.014Z,62.48
2023-11-07T07:07:55.989Z,61.64
2023-11-07T07:10:24.258Z,60.95
2023-11-07T07:12:52.362Z,59.99
2023-11-07T07:15:19.689Z,59.29
2023-11-07T07:17:47.545Z,58.23
2023-11-07T07:20:14.986Z,57.83
2023-11-07T07:22:43.128Z,59.45
2023-11-07T07:25:16.846Z,60.20
2023-11-07T07:27:48.620Z,59.44
2023-11-07T07:30:22.763Z,60.39
2023-11-07T07:32:52.082Z,60.82
2023-11-07T07:35:22.492Z,60.23
2023-11-07T07:37:53.811Z,60.13
2023-11-07T07:40:30.888Z,59.84
2023-11-07T07:43:10.427Z,59.63
2023-11-07T07:45:45.352Z,58.89
2023-11-07T07:48:13.267Z,58.36
2023-11-07T07:50:43.417Z,58.26
2023-11-07T07:53:11.969Z,58.53
2023-11-07T07:55:44.562Z,58.69
2023-11-07T07:58:12.468Z,58.90
2023-11-07T08:00:39.945Z,59.14
2023-11-07T08:03:11.349Z,59.50
2023-11-07T08:05:41.047Z,59.65
2023-11-07T08:08:09.885Z,59.74
2023-11-07T08:10:37.658Z,59.80
2023-11-07T08:13:08.831Z,59.92
2023-11-07T08:15:37.521Z,59.91
2023-11-07T08:18:08.942Z,59.51
2023-11-07T08:20:39.600Z,59.66
2023-11-07T08:23:07.259Z,59.93
2023-11-07T08:25:35.128Z,60.09
2023-11-07T08:28:08.144Z,60.35
2023-11-07T08:30:38.831Z,60.26
2023-11-07T08:33:08.995Z,61.02
2023-11-07T08:35:38.076Z,61.75
2023-11-07T08:38:05.802Z,61.37
2023-11-07T08:40:33.216Z,60.97
2023-11-07T08:43:01.253Z,60.96
2023-11-07T08:45:30.060Z,60.86
2023-11-07T08:47:58.341Z,60.75
2023-11-07T08:50:27.093Z,60.93
2023-11-07T08:52:54.764Z,60.47
2023-11-07T08:55:22.545Z,60.13
2023-11-07T08:57:51.226Z,59.77
2023-11-07T09:00:23.363Z,59.27
2023-11-07T09:02:52.044Z,59.08
2023-11-07T09:05:19.705Z,59.34
2023-11-07T09:07:47.916Z,59.04
2023-11-07T09:10:15.736Z,58.36
2023-11-07T09:12:43.610Z,57.45
2023-11-07T09:15:12.675Z,57.23
2023-11-07T09:17:40.966Z,57.27
2023-11-07T09:20:13.050Z,56.86
2023-11-07T09:22:44.360Z,56.39
2023-11-07T09:25:13.095Z,56.40
2023-11-07T09:27:40.819Z,56.50
2023-11-07T09:30:10.668Z,56.12
2023-11-07T09:32:39.823Z,55.47
2023-11-07T09:35:08.783Z,55.61
2023-11-07T09:37:42.485Z,55.16
2023-11-07T09:40:24.179Z,55.07
2023-11-07T09:42:53.409Z,54.88
2023-11-07T09:45:21.103Z,54.62
2023-11-07T09:47:50.604Z,53.99
2023-11-07T09:50:20.223Z,53.87
2023-11-07T09:52:48.961Z,53.35
2023-11-07T09:55:17.278Z,53.18
2023-11-07T09:58:09.638Z,52.66
2023-11-07T10:00:45.073Z,53.01
2023-11-07T10:03:13.307Z,53.55
2023-11-07T10:05:41.208Z,53.41
2023-11-07T10:08:08.620Z,52.87
2023-11-07T10:10:36.133Z,52.49
2023-11-07T10:13:11.907Z,51.84
2023-11-07T10:15:40.363Z,51.24
2023-11-07T10:18:12.458Z,51.18
2023-11-07T10:20:51.585Z,51.32
2023-11-07T10:23:19.437Z,51.78
2023-11-07T10:25:51.672Z,52.03
2023-11-07T10:28:21.590Z,52.18
2023-11-07T10:30:49.823Z,51.90
2023-11-07T10:33:29.861Z,51.95
2023-11-07T10:36:01.886Z,51.81
2023-11-07T10:38:32.993Z,52.10
2023-11-07T10:41:02.799Z,52.00
2023-11-07T10:43:36.616Z,52.10
2023-11-07T10:46:10.167Z,52.19
2023-11-07T10:48:41.952Z,51.95
2023-11-07T10:51:14.445Z,52.03
2023-11-07T10:53:45.764Z,52.14
2023-11-07T10:56:19.301Z,52.28
2023-11-07T10:59:17.980Z,51.82
2023-11-07T11:01:47.540Z,51.72
2023-11-07T11:04:15.797Z,51.45
2023-11-07T11:06:53.537Z,51.52
2023-11-07T11:09:22.379Z,51.46
2023-11-07T11:11:52.085Z,51.35
2023-11-07T11:14:20.493Z,51.06
2023-11-07T11:16:49.103Z,51.21
2023-11-07T11:19:28.548Z,51.14
2023-11-07T11:22:25.465Z,50.99
2023-11-07T11:25:20.615Z,50.88
2023-11-07T11:27:52.388Z,51.07
2023-11-07T11:30:28.094Z,50.96
2023-11-07T11:33:08.452Z,50.75
2023-11-07T11:35:42.809Z,50.85
2023-11-07T11:38:16.597Z,50.81
2023-11-07T11:41:02.136Z,50.65
2023-11-07T11:43:35.067Z,50.89
2023-11-07T11:46:13.089Z,50.70
2023-11-07T11:48:53.265Z,50.70
2023-11-07T11:51:35.132Z,50.43
2023-11-07T11:54:02.516Z,50.42
2023-11-07T11:56:29.878Z,50.50
2023-11-07T11:59:04.546Z,50.18
2023-11-07T12:01:47.605Z,50.07
2023-11-07T12:04:51.117Z,50.31
2023-11-07T12:07:22.650Z,50.15
2023-11-07T12:09:54.401Z,50.34
2023-11-07T12:12:21.713Z,50.60
2023-11-07T12:14:56.364Z,50.39
2023-11-07T12:17:44.216Z,50.31
2023-11-07T12:20:15.793Z,50.20
2023-11-07T12:22:44.774Z,50.53
2023-11-07T12:25:22.125Z,50.58
2023-11-07T12:28:06.937Z,50.84
2023-11-07T12:30:35.650Z,51.09
2023-11-07T12:33:05.220Z,51.09
2023-11-07T12:35:32.758Z,51.14
2023-11-07T12:38:02.184Z,51.19
2023-11-07T12:40:30.050Z,51.13
2023-11-07T12:42:57.535Z,51.58
2023-11-07T12:45:32.724Z,51.63
2023-11-07T12:48:01.587Z,51.70
2023-11-07T12:50:32.675Z,51.54
2023-11-07T12:53:02.029Z,51.40
2023-11-07T12:55:29.779Z,51.37
2023-11-07T12:57:57.517Z,51.46
2023-11-07T13:00:26.948Z,51.79
2023-11-07T13:02:58.970Z,51.95
2023-11-07T13:05:26.819Z,52.05
2023-11-07T13:07:54.544Z,52.06
2023-11-07T13:10:22.236Z,51.95
2023-11-07T13:12:52.653Z,51.97
2023-11-07T13:15:20.065Z,52.25
2023-11-07T13:17:48.032Z,52.32
2023-11-07T13:20:18.150Z,52.45
2023-11-07T13:22:47.247Z,52.63
2023-11-07T13:25:15.157Z,52.95
2023-11-07T13:27:44.048Z,53.01
2023-11-07T13:30:20.170Z,53.28
2023-11-07T13:32:47.634Z,53.56
2023-11-07T13:35:15.084Z,53.79
2023-11-07T13:37:42.724Z,54.00
2023-11-07T13:40:11.086Z,54.08
2023-11-07T13:42:39.139Z,54.27
2023-11-07T13:45:07.408Z,54.33
2023-11-07T13:47:34.951Z,54.49
2023-11-07T13:50:05.957Z,54.82
2023-11-07T13:52:33.631Z,54.92
2023-11-07T13:55:01.254Z,55.25
2023-11-07T13:57:28.641Z,55.47
2023-11-07T13:59:56.064Z,55.93
2023-11-07T14:02:23.457Z,56.19
2023-11-07T14:04:50.796Z,56.36
2023-11-07T14:07:18.577Z,56.73
2023-11-07T14:09:45.916Z,57.05
2023-11-07T14:12:13.973Z,57.75
2023-11-07T14:14:41.657Z,58.20
2023-11-07T14:17:09.225Z,58.73
2023-11-07T14:19:36.583Z,59.01
2023-11-07T14:26:10.257Z,60.16
2023-11-07T14:28:46.826Z,60.86
2023-11-07T14:31:22.613Z,61.62
2023-11-07T14:33:50.909Z,62.09
2023-11-07T14:36:18.999Z,62.66
2023-11-07T14:38:47.125Z,63.07
2023-11-07T14:41:15.522Z,63.68
2023-11-07T14:43:42.917Z,64.14
2023-11-07T14:46:11.236Z,64.51
2023-11-07T14:48:38.750Z,65.03
2023-11-07T14:51:06.233Z,65.45
2023-11-07T14:53:34.443Z,65.79
2023-11-07T14:56:01.971Z,66.24
2023-11-07T14:58:29.395Z,66.65
2023-11-07T15:00:57.980Z,67.04
2023-11-07T15:03:25.759Z,67.35
2023-11-07T15:05:55.180Z,67.63
2023-11-07T15:08:23.583Z,68.15
2023-11-07T15:10:51.512Z,68.53
2023-11-07T15:13:19.015Z,68.92
2023-11-07T15:15:46.595Z,69.27
2023-11-07T15:18:14.094Z,69.47
2023-11-07T15:20:43.800Z,69.94
2023-11-07T15:23:11.215Z,70.24
2023-11-07T15:25:40.870Z,70.64
2023-11-07T15:28:08.401Z,71.05
2023-11-07T15:30:36.888Z,71.41
2023-11-07T15:33:05.083Z,71.61
2023-11-07T15:35:38.021Z,71.94
2023-11-07T15:38:10.340Z,72.39
2023-11-07T15:40:40.428Z,72.98
2023-11-07T15:43:09.533Z,73.43
2023-11-07T15:45:37.057Z,73.81
2023-11-07T15:48:09.390Z,74.20
2023-11-07T15:50:37.989Z,74.85
2023-11-07T15:53:08.647Z,75.19
2023-11-07T15:55:38.412Z,75.53
2023-11-07T15:58:06.825Z,75.93
2023-11-07T16:00:35.281Z,76.38
2023-11-07T16:03:04.186Z,76.76
2023-11-07T16:05:35.318Z,77.10
2023-11-07T16:08:03.575Z,77.38
2023-11-07T16:10:32.843Z,77.63
2023-11-07T16:13:00.747Z,77.88
2023-11-07T16:15:28.148Z,78.34
2023-11-07T16:17:56.094Z,78.70
2023-11-07T16:20:24.382Z,79.20
2023-11-07T16:22:51.828Z,79.49
2023-11-07T16:25:20.251Z,80.04
2023-11-07T16:27:48.185Z,80.50
2023-11-07T16:30:17.731Z,81.03
2023-11-07T16:32:45.438Z,81.42
2023-11-07T16:35:13.972Z,81.87
2023-11-07T16:37:41.315Z,82.23
2023-11-07T16:40:12.505Z,82.54
2023-11-07T16:42:42.045Z,82.86
2023-11-07T16:45:13.819Z,83.27
2023-11-07T16:47:43.749Z,83.53
2023-11-07T16:50:14.647Z,83.89
2023-11-07T16:52:42.443Z,84.10
2023-11-07T16:55:14.952Z,84.30
2023-11-07T16:57:43.853Z,84.31
2023-11-07T17:00:13.103Z,84.28
2023-11-07T17:02:42.303Z,84.61
2023-11-07T17:05:10.576Z,85.02
2023-11-07T17:07:38.189Z,85.42
2023-11-07T17:10:09.740Z,85.77
2023-11-07T17:12:37.515Z,86.28
2023-11-07T17:15:08.444Z,86.74
2023-11-07T17:17:36.063Z,87.28
2023-11-07T17:20:07.027Z,87.69
2023-11-07T17:22:37.473Z,88.07
2023-11-07T17:25:05.807Z,88.42
2023-11-07T17:27:33.496Z,88.55
2023-11-07T17:30:01.176Z,88.74
2023-11-07T17:32:29.608Z,89.10
2023-11-07T17:34:59.887Z,89.24
2023-11-07T17:37:29.838Z,89.32
2023-11-07T17:39:57.559Z,89.38
2023-11-07T17:42:25.647Z,89.70
2023-11-07T17:44:52.964Z,89.76
2023-11-07T17:47:21.907Z,89.70
2023-11-07T17:49:49.480Z,89.76
2023-11-07T17:52:19.471Z,89.81
2023-11-07T17:54:46.913Z,89.70
2023-11-07T17:57:14.238Z,89.63
2023-11-07T17:59:41.599Z,89.44
2023-11-07T18:02:09.208Z,89.18
2023-11-07T18:04:37.379Z,89.01
2023-11-07T18:07:04.760Z,88.85
2023-11-07T18:09:32.212Z,88.80
2023-11-07T18:11:59.652Z,88.72
2023-11-07T18:14:28.846Z,88.67
2023-11-07T18:16:58.273Z,88.78
2023-11-07T18:19:25.865Z,88.94
2023-11-07T18:21:53.237Z,89.21
2023-11-07T18:24:20.550Z,89.48
2023-11-07T18:26:51.040Z,89.51
2023-11-07T18:29:18.582Z,89.61
2023-11-07T18:31:45.969Z,89.61
2023-11-07T18:34:20.939Z,89.78
2023-11-07T18:37:00.668Z,89.94
2023-11-07T18:39:32.133Z,90.05
2023-11-07T18:42:00.179Z,90.32
2023-11-07T18:44:37.001Z,90.31
2023-11-07T18:47:04.899Z,90.41
2023-11-07T18:49:35.171Z,90.51
2023-11-07T18:52:03.924Z,90.49
2023-11-07T18:54:31.473Z,90.32
2023-11-07T18:56:59.330Z,89.99
2023-11-07T18:59:34.341Z,89.57
2023-11-07T19:02:06.749Z,88.96
2023-11-07T19:04:37.408Z,88.34
2023-11-07T19:07:06.334Z,87.69
2023-11-07T19:09:34.240Z,87.21
2023-11-07T19:12:04.772Z,86.69
2023-11-07T19:14:32.218Z,86.36
2023-11-07T19:16:59.746Z,85.96
2023-11-07T19:19:28.344Z,85.82
2023-11-07T19:21:56.722Z,85.56
2023-11-07T19:24:24.046Z,85.57
2023-11-07T19:26:51.647Z,85.57
2023-11-07T19:29:19.533Z,85.62
2023-11-07T19:31:51.385Z,85.64
2023-11-07T19:34:21.559Z,85.60
2023-11-07T19:36:49.531Z,85.61
2023-11-07T19:39:18.695Z,85.61
2023-11-07T19:41:47.075Z,85.84
2023-11-07T19:44:14.692Z,85.87
2023-11-07T19:46:41.979Z,86.13
2023-11-07T19:49:09.339Z,86.29
2023-11-07T19:51:39.163Z,86.43
2023-11-07T19:54:07.111Z,86.53
2023-11-07T19:56:42.210Z,86.62
2023-11-07T19:59:11.711Z,86.71
2023-11-07T20:01:40.631Z,86.74
2023-11-07T20:04:09.471Z,86.61
2023-11-07T20:06:37.298Z,86.61
2023-11-07T20:09:04.758Z,86.53
2023-11-07T20:11:33.541Z,86.53
2023-11-07T20:14:01.996Z,86.61
2023-11-07T20:16:29.491Z,86.67
2023-11-07T20:18:56.907Z,86.66
2023-11-07T20:21:24.409Z,86.72
2023-11-07T20:23:54.642Z,86.85
2023-11-07T20:26:22.306Z,86.93
2023-11-07T20:28:51.187Z,86.95
2023-11-07T20:31:19.123Z,86.98
2023-11-07T20:33:49.988Z,86.77
2023-11-07T20:36:19.645Z,86.74
2023-11-07T20:38:47.757Z,86.61
2023-11-07T20:41:19.936Z,86.58
2023-11-07T20:43:47.988Z,86.52
2023-11-07T20:46:30.623Z,86.49
2023-11-07T20:49:03.622Z,86.60
2023-11-07T20:51:33.191Z,86.56
2023-11-07T20:54:00.650Z,86.69
2023-11-07T20:56:30.694Z,86.85
2023-11-07T20:58:58.161Z,86.73
2023-11-07T21:01:27.580Z,86.66
2023-11-07T21:03:56.895Z,86.56
2023-11-07T21:06:25.159Z,86.59
2023-11-07T21:08:53.471Z,86.47
2023-11-07T21:11:23.622Z,86.42
2023-11-07T21:13:53.956Z,86.52
2023-11-07T21:16:21.551Z,86.76
2023-11-07T21:18:49.202Z,86.99
2023-11-07T21:21:16.996Z,87.10
2023-11-07T21:23:44.676Z,87.24
2023-11-07T21:26:12.102Z,87.21
2023-11-07T21:28:39.412Z,87.26
2023-11-07T21:31:06.858Z,87.23
2023-11-07T21:33:34.621Z,87.19
2023-11-07T21:36:02.829Z,87.34
2023-11-07T21:38:30.743Z,87.35
2023-11-07T21:40:58.017Z,87.43
2023-11-07T21:43:25.680Z,87.50
2023-11-07T21:45:53.346Z,87.59
2023-11-07T21:48:27.237Z,87.54
2023-11-07T21:50:56.867Z,87.63
2023-11-07T21:53:25.734Z,87.81
2023-11-07T21:55:54.552Z,88.06
2023-11-07T21:58:21.892Z,88.29
2023-11-07T22:00:49.122Z,88.44
2023-11-07T22:03:16.492Z,88.47
2023-11-07T22:05:43.887Z,88.52
2023-11-07T22:08:11.956Z,88.71
2023-11-07T22:10:39.265Z,88.72
2023-11-07T22:13:06.501Z,88.66
2023-11-07T22:15:33.734Z,88.90
2023-11-07T22:18:01.149Z,89.10
2023-11-07T22:20:28.555Z,89.07
2023-11-07T22:22:55.768Z,89.05
2023-11-07T22:25:23.015Z,89.38
2023-11-07T22:27:50.304Z,89.53
2023-11-07T22:30:17.856Z,89.55
2023-11-07T22:32:45.442Z,89.57
2023-11-07T22:35:14.088Z,89.59
2023-11-07T22:37:41.616Z,89.60
2023-11-07T22:40:12.194Z,89.73
2023-11-07T22:42:41.426Z,89.88
2023-11-07T22:45:09.896Z,90.29
2023-11-07T22:47:40.629Z,90.73
2023-11-07T22:50:08.749Z,91.12
2023-11-07T22:52:36.025Z,91.44
2023-11-07T22:55:03.854Z,91.81
2023-11-07T22:57:31.171Z,92.11
2023-11-07T22:59:58.552Z,92.28
2023-11-07T23:02:25.768Z,92.22
2023-11-07T23:04:53.318Z,92.32
2023-11-07T23:07:21.559Z,92.26
2023-11-07T23:09:50.501Z,92.14
2023-11-07T23:12:18.106Z,92.08
2023-11-07T23:14:46.742Z,92.04
2023-11-07T23:17:14.719Z,91.85
2023-11-07T23:19:42.807Z,91.81
2023-11-07T23:22:13.501Z,91.93
2023-11-07T23:24:43.649Z,91.95
2023-11-07T23:27:11.087Z,92.01
2023-11-07T23:29:39.111Z,92.07
2023-11-07T23:32:07.480Z,91.70
2023-11-07T23:34:34.848Z,91.36
2023-11-07T23:37:02.256Z,91.22
2023-11-07T23:39:30.329Z,91.29
2023-11-07T23:41:57.800Z,91.22
2023-11-07T23:44:27.600Z,91.34
2023-11-07T23:46:55.265Z,91.30
2023-11-07T23:49:22.549Z,91.20
2023-11-07T23:51:49.998Z,91.18
2023-11-07T23:54:17.356Z,91.08
2023-11-07T23:56:44.821Z,91.05
2023-11-07T23:59:12.031Z,91.01
